»·PEaware :: UAL935 KCOS-KDEN

UAL935 :: KCOS-KDEN

FLIGHT INFORMATION

Flight Status: Arrived
Operator:
United Airlines
More flights by this operator :: More flights under this callsign
Pilot: Michael S. (20314)
Aircraft: AIRBUS A321
(A321)
More flights by this aircraft type
Origin: KCOS City Of Colorado Springs Mun
United States
Destination: KDEN Denver Intl
United States
More flights between these airports :: More routes between these airports
Route: COS6 ADANE V389 LUFSE JEFEL
File this flight plan on PilotEdge
Remarks: RMK / SIMBRIEF
Altitude:
(Current/Filed)
12,000ft
Speed:
(Current/Filed)
345kts
Departed: 01-Jan-22 01:21 PM
Arrived: 01-Jan-22 01:47 PM
Distance/Time
Traveled:
63nm/0:26
Distance/Time
To Go:
Arrived

Flight Plot

Page will automatically refresh every two minutes.

Flight plan parsing failed; only flown route is shown


Map Options




Map Legend


Flown Route
Filed Route
Departure Airport
Arrival Airport
Navaid (VOR, NDB)
Fix

Horizontal Profiles

Position Reports

Time Latitude Longitude Heading Altitude Ground
Speed
01-Jan-22 12:50 38.797936 -104.701548 100 6196ft 0kts
01-Jan-22 12:51 38.797936 -104.701548 100 6196ft 0kts
01-Jan-22 12:52 38.797936 -104.701548 100 6196ft 0kts
01-Jan-22 12:53 38.797936 -104.701548 100 6196ft 0kts
01-Jan-22 12:54 38.797936 -104.701548 100 6196ft 0kts
01-Jan-22 12:55 38.797936 -104.701548 100 6196ft 0kts
01-Jan-22 12:56 38.797936 -104.701548 100 6196ft 0kts
01-Jan-22 12:57 38.797936 -104.701548 100 6196ft 0kts
01-Jan-22 12:58 38.797936 -104.701548 100 6196ft 0kts
01-Jan-22 12:59 38.797936 -104.701548 100 6196ft 0kts
01-Jan-22 13:00 38.797936 -104.701548 100 6196ft 0kts
01-Jan-22 13:01 38.797936 -104.701548 100 6196ft 0kts
01-Jan-22 13:02 38.797936 -104.701548 100 6196ft 0kts
01-Jan-22 13:03 38.797936 -104.701548 100 6196ft 0kts
01-Jan-22 13:04 38.797936 -104.701548 100 6196ft 0kts
01-Jan-22 13:05 38.798002 -104.701978 120 6196ft 2kts
01-Jan-22 13:06 38.798345 -104.702596 123 6196ft 2kts
01-Jan-22 13:07 38.798483 -104.703007 60 6196ft 1kts
01-Jan-22 13:08 38.798339 -104.703114 0 6196ft 0kts
01-Jan-22 13:09 38.798339 -104.703114 0 6196ft 0kts
01-Jan-22 13:10 38.798760 -104.703010 19 6196ft 6kts
01-Jan-22 13:11 38.800961 -104.700937 4 6196ft 12kts
01-Jan-22 13:12 38.803133 -104.698644 88 6196ft 15kts
01-Jan-22 13:13 38.803145 -104.691778 88 6196ft 20kts
01-Jan-22 13:14 38.802085 -104.687649 178 6196ft 13kts
01-Jan-22 13:15 38.795856 -104.687654 180 6196ft 29kts
01-Jan-22 13:16 38.788472 -104.687663 180 6196ft 24kts
01-Jan-22 13:17 38.782050 -104.687671 180 6196ft 20kts
01-Jan-22 13:18 38.779189 -104.687106 91 6196ft 0kts
01-Jan-22 13:19 38.780211 -104.685804 11 6196ft 30kts
01-Jan-22 13:20 38.819130 -104.686054 358 8074ft 174kts
01-Jan-22 13:21 38.870191 -104.672454 36 9407ft 224kts
01-Jan-22 13:22 38.929944 -104.620929 32 10696ft 294kts
01-Jan-22 13:23 39.005428 -104.558134 31 11983ft 339kts
01-Jan-22 13:24 39.084339 -104.492507 31 12008ft 338kts
01-Jan-22 13:25 39.116614 -104.465680 31 12008ft 338kts
01-Jan-22 13:26 39.239432 -104.360924 34 12009ft 337kts
01-Jan-22 13:27 39.321673 -104.333231 348 11997ft 326kts
01-Jan-22 13:28 39.410621 -104.359146 347 12008ft 318kts
01-Jan-22 13:29 39.496963 -104.384668 347 11939ft 318kts
01-Jan-22 13:30 39.582389 -104.409847 347 11915ft 317kts
01-Jan-22 13:31 39.667799 -104.435041 347 11965ft 314kts
01-Jan-22 13:32 39.752975 -104.460406 347 11992ft 314kts
01-Jan-22 13:33 39.837879 -104.485521 348 12008ft 314kts
01-Jan-22 13:34 39.922083 -104.500533 357 11724ft 287kts
01-Jan-22 13:35 39.998587 -104.504852 357 10441ft 272kts
01-Jan-22 13:36 40.073328 -104.508998 358 9052ft 267kts
01-Jan-22 13:37 40.147610 -104.516719 334 9000ft 268kts
01-Jan-22 13:38 40.166493 -104.592775 267 9014ft 218kts
01-Jan-22 13:39 40.161784 -104.665556 251 8915ft 195kts
01-Jan-22 13:40 40.113860 -104.692684 182 8020ft 200kts
01-Jan-22 13:41 40.058082 -104.694111 180 8008ft 200kts
01-Jan-22 13:42 40.004538 -104.694783 180 7560ft 170kts
01-Jan-22 13:43 39.961329 -104.695294 181 6729ft 152kts
01-Jan-22 13:44 39.919925 -104.695797 181 5995ft 148kts
01-Jan-22 13:45 39.881348 -104.696247 180 5443ft 91kts
01-Jan-22 13:46 39.868859 -104.696142 173 5443ft 40kts
01-Jan-22 13:47 39.863165 -104.692749 150 5443ft 18kts
01-Jan-22 13:48 39.860348 -104.688126 90 5443ft 18kts
01-Jan-22 13:49 39.858873 -104.683451 150 5443ft 18kts
01-Jan-22 13:50 39.858873 -104.683451 150 5443ft 18kts

Navigation Log

Ident Type
Flight plan parsing failed, navigation log unavailable